createdAt,value
2023-05-04T06:26:17.334Z,1015.21
2023-05-04T06:27:17.286Z,1015.20
2023-05-04T06:28:17.469Z,1015.13
2023-05-04T06:29:30.302Z,1015.13
2023-05-04T06:30:30.290Z,1015.06
2023-05-04T06:31:30.358Z,1015.11
2023-05-04T06:32:30.304Z,1015.03
2023-05-04T06:33:30.258Z,1015.02
2023-05-04T06:34:30.258Z,1015.07
2023-05-04T06:35:30.268Z,1015.03
2023-05-04T06:36:30.253Z,1015.00
2023-05-04T06:37:30.216Z,1015.01
2023-05-04T06:38:30.204Z,1015.06
2023-05-04T06:39:30.194Z,1015.02
2023-05-04T06:40:30.214Z,1014.97
2023-05-04T06:41:30.195Z,1015.02
2023-05-04T06:42:30.160Z,1014.97
2023-05-04T06:43:30.155Z,1015.01
2023-05-04T06:44:30.140Z,1015.03
2023-05-04T06:45:30.148Z,1014.96
2023-05-04T06:46:30.116Z,1014.97
2023-05-04T06:47:30.126Z,1015.01
2023-05-04T06:48:30.112Z,1014.92
2023-05-04T06:49:30.087Z,1014.95
2023-05-04T06:50:30.292Z,1014.99
2023-05-04T06:51:30.073Z,1014.96
2023-05-04T06:52:30.060Z,1014.95
2023-05-04T06:53:30.058Z,1014.82
2023-05-04T06:54:30.030Z,1014.50
2023-05-04T06:55:30.023Z,1014.50
2023-05-04T06:56:30.015Z,1014.46
2023-05-04T06:57:30.131Z,1014.46
2023-05-04T06:58:29.990Z,1014.47
2023-05-04T06:59:29.985Z,1014.41
2023-05-04T07:00:29.966Z,1014.46
2023-05-04T07:01:29.982Z,1014.43
2023-05-04T07:02:29.990Z,1014.42
2023-05-04T07:03:29.954Z,1014.44
2023-05-04T07:04:29.930Z,1014.48
2023-05-04T07:05:29.931Z,1014.43
2023-05-04T07:06:29.904Z,1014.42
2023-05-04T07:07:29.896Z,1014.44
2023-05-04T07:08:29.882Z,1014.45
2023-05-04T07:09:29.874Z,1014.41
2023-05-04T07:10:29.867Z,1014.41
2023-05-04T07:11:29.852Z,1014.38
2023-05-04T07:12:29.904Z,1014.40
2023-05-04T07:13:29.852Z,1014.42
2023-05-04T07:14:29.819Z,1014.43
2023-05-04T07:15:30.024Z,1014.42
2023-05-04T07:16:29.819Z,1014.41
2023-05-04T07:17:29.849Z,1014.43
2023-05-04T07:18:29.782Z,1014.41
2023-05-04T07:19:29.767Z,1014.40
2023-05-04T07:20:29.753Z,1014.42
2023-05-04T07:21:29.796Z,1014.39
2023-05-04T07:22:29.749Z,1014.36
2023-05-04T07:23:29.725Z,1014.37
2023-05-04T07:24:29.717Z,1014.34
2023-05-04T07:25:29.703Z,1014.37
2023-05-04T07:26:29.694Z,1014.35
2023-05-04T07:27:29.681Z,1014.35
2023-05-04T07:28:29.668Z,1014.33
2023-05-04T07:29:29.677Z,1014.33
2023-05-04T07:30:29.664Z,1014.32
2023-05-04T07:31:30.780Z,1014.33
2023-05-04T07:32:29.632Z,1014.38
2023-05-04T07:33:29.623Z,1014.30
2023-05-04T07:34:41.905Z,1014.33
2023-05-04T07:35:29.600Z,1014.34
2023-05-04T07:36:29.585Z,1014.32
2023-05-04T07:37:29.577Z,1014.32
2023-05-04T07:38:29.566Z,1014.32
2023-05-04T07:39:29.556Z,1014.35
2023-05-04T07:40:29.542Z,1014.29
2023-05-04T07:41:29.534Z,1014.30
2023-05-04T07:42:29.521Z,1014.27
2023-05-04T07:43:29.520Z,1014.27
2023-05-04T07:44:29.582Z,1014.26
2023-05-04T07:45:29.617Z,1014.25
2023-05-04T07:46:29.521Z,1014.28
2023-05-04T07:47:29.492Z,1014.26
2023-05-04T07:48:29.459Z,1014.23
2023-05-04T07:49:29.454Z,1014.23
2023-05-04T07:50:29.440Z,1014.27
2023-05-04T07:51:29.433Z,1014.22
2023-05-04T07:52:29.419Z,1014.23
2023-05-04T07:53:29.417Z,1014.26
2023-05-04T07:54:29.404Z,1014.23
2023-05-04T07:55:29.388Z,1014.25
2023-05-04T07:56:29.378Z,1014.19
2023-05-04T07:57:29.501Z,1014.20
2023-05-04T07:58:29.358Z,1014.15
2023-05-04T07:59:29.350Z,1014.18
2023-05-04T08:00:29.342Z,1014.16
2023-05-04T08:01:29.556Z,1014.13
2023-05-04T08:02:29.403Z,1014.13
2023-05-04T08:03:29.309Z,1014.12
2023-05-04T08:04:29.295Z,1014.14
2023-05-04T08:05:29.290Z,1014.14
2023-05-04T08:06:29.277Z,1014.09
2023-05-04T08:07:29.268Z,1014.11
2023-05-04T08:08:29.257Z,1014.10
2023-05-04T08:09:29.253Z,1014.10
2023-05-04T08:10:29.238Z,1014.10
2023-05-04T08:11:29.228Z,1014.09
2023-05-04T08:12:29.254Z,1014.07
2023-05-04T08:13:29.352Z,1014.05
2023-05-04T08:14:29.202Z,1014.06
2023-05-04T08:15:29.187Z,1014.06
2023-05-04T08:16:29.196Z,1014.03
2023-05-04T08:17:29.215Z,1014.01
2023-05-04T08:18:29.162Z,1013.96
2023-05-04T08:19:29.146Z,1013.98
2023-05-04T08:20:29.143Z,1013.98
2023-05-04T08:21:29.124Z,1014.00
2023-05-04T08:22:29.116Z,1014.01
2023-05-04T08:23:29.110Z,1013.97
2023-05-04T08:24:29.103Z,1013.90
2023-05-04T08:25:29.087Z,1013.90
2023-05-04T08:26:29.076Z,1013.94
2023-05-04T08:27:29.073Z,1013.92
2023-05-04T08:28:29.057Z,1013.96
2023-05-04T08:29:29.059Z,1013.96
2023-05-04T08:30:29.037Z,1013.94
2023-05-04T08:31:29.077Z,1013.97
2023-05-04T08:32:30.497Z,1013.94
2023-05-04T08:33:29.027Z,1013.95
2023-05-04T08:34:28.996Z,1013.92
2023-05-04T08:35:28.995Z,1013.90
2023-05-04T08:36:28.982Z,1013.91
2023-05-04T08:37:28.973Z,1013.90
2023-05-04T08:38:28.961Z,1013.86
2023-05-04T08:39:28.962Z,1013.84
2023-05-04T08:40:28.952Z,1013.85
2023-05-04T08:41:28.934Z,1013.83
2023-05-04T08:42:28.925Z,1013.79
2023-05-04T08:43:28.912Z,1013.79
2023-05-04T08:44:28.904Z,1013.82
2023-05-04T08:45:28.933Z,1013.81
2023-05-04T08:46:28.882Z,1013.78
2023-05-04T08:47:29.225Z,1013.78
2023-05-04T08:48:28.872Z,1013.79
2023-05-04T08:49:28.916Z,1013.82
2023-05-04T08:50:28.847Z,1013.82
2023-05-04T08:51:28.835Z,1013.79
2023-05-04T08:52:28.828Z,1013.80
2023-05-04T08:53:28.815Z,1013.83
2023-05-04T08:54:28.823Z,1013.81
2023-05-04T08:55:28.795Z,1013.76
2023-05-04T08:56:28.782Z,1013.74
2023-05-04T08:57:28.776Z,1013.75
2023-05-04T08:58:28.776Z,1013.77
2023-05-04T08:59:28.756Z,1013.75
2023-05-04T09:00:28.805Z,1013.76
2023-05-04T09:01:28.827Z,1013.74
2023-05-04T09:02:28.774Z,1013.77
2023-05-04T09:03:28.808Z,1013.71
2023-05-04T09:04:29.746Z,1013.77
2023-05-04T09:05:28.721Z,1013.72
2023-05-04T09:06:28.692Z,1013.72
2023-05-04T09:07:28.677Z,1013.70
2023-05-04T09:08:28.663Z,1013.70
2023-05-04T09:09:28.726Z,1013.68
2023-05-04T09:10:29.695Z,1013.71
2023-05-04T09:11:28.638Z,1013.68
2023-05-04T09:12:28.655Z,1013.65
2023-05-04T09:13:28.621Z,1013.70
2023-05-04T09:14:28.601Z,1013.68
2023-05-04T09:15:28.597Z,1013.70
2023-05-04T09:16:28.617Z,1013.66
2023-05-04T09:17:28.601Z,1013.66
2023-05-04T09:18:28.619Z,1013.65
2023-05-04T09:19:28.568Z,1013.63
2023-05-04T09:20:28.554Z,1013.57
2023-05-04T09:21:28.627Z,1013.59
2023-05-04T09:22:28.890Z,1013.58
2023-05-04T09:23:28.597Z,1013.55
2023-05-04T09:24:28.534Z,1013.56
2023-05-04T09:25:28.515Z,1013.55
2023-05-04T09:26:28.493Z,1013.52
2023-05-04T09:27:28.481Z,1013.53
2023-05-04T09:28:28.895Z,1013.51
2023-05-04T09:29:28.464Z,1013.53
2023-05-04T09:30:28.453Z,1013.56
2023-05-04T09:31:28.540Z,1013.50
2023-05-04T09:32:28.462Z,1013.49
2023-05-04T09:33:28.430Z,1013.48
2023-05-04T09:34:28.617Z,1013.48
2023-05-04T09:35:33.162Z,1013.45
2023-05-04T09:36:28.398Z,1013.46
2023-05-04T09:37:28.488Z,1013.51
2023-05-04T09:38:28.382Z,1013.39
2023-05-04T09:39:28.371Z,1013.42
2023-05-04T09:40:28.355Z,1013.43
2023-05-04T09:41:28.348Z,1013.44
2023-05-04T09:42:28.346Z,1013.36
2023-05-04T09:43:28.328Z,1013.35
2023-05-04T09:44:29.582Z,1013.34
2023-05-04T09:45:28.309Z,1013.32
2023-05-04T09:46:28.360Z,1013.31
2023-05-04T09:47:28.333Z,1013.27
2023-05-04T09:48:28.281Z,1013.30
2023-05-04T09:49:28.276Z,1013.31
2023-05-04T09:50:28.261Z,1013.33
2023-05-04T09:51:28.250Z,1013.25
2023-05-04T09:52:28.241Z,1013.24
2023-05-04T09:53:28.268Z,1013.27
2023-05-04T09:54:28.226Z,1013.25
2023-05-04T09:55:28.219Z,1013.24
2023-05-04T09:56:28.207Z,1013.24
2023-05-04T09:57:28.192Z,1013.26
2023-05-04T09:58:28.184Z,1013.23
2023-05-04T09:59:28.173Z,1013.24
2023-05-04T10:00:28.169Z,1013.21
2023-05-04T10:01:28.154Z,1013.16
2023-05-04T10:02:28.238Z,1013.16
2023-05-04T10:03:28.140Z,1013.13
2023-05-04T10:04:28.132Z,1013.12
2023-05-04T10:05:28.156Z,1013.10
2023-05-04T10:06:28.103Z,1013.06
2023-05-04T10:07:28.094Z,1013.06
2023-05-04T10:08:28.104Z,1013.07
2023-05-04T10:09:28.106Z,1013.04
2023-05-04T10:10:28.269Z,1013.05
2023-05-04T10:11:28.054Z,1013.04
2023-05-04T10:12:28.096Z,1013.01
2023-05-04T10:13:28.053Z,1012.98
2023-05-04T10:14:28.027Z,1012.95
2023-05-04T10:15:28.018Z,1012.92
2023-05-04T10:16:28.021Z,1012.90
2023-05-04T10:17:28.029Z,1012.95
2023-05-04T10:18:27.991Z,1012.93
2023-05-04T10:19:27.975Z,1012.91
2023-05-04T10:20:27.969Z,1012.91
2023-05-04T10:21:27.960Z,1012.90
2023-05-04T10:22:27.956Z,1012.87
2023-05-04T10:23:27.938Z,1012.86
2023-05-04T10:24:27.933Z,1012.83
2023-05-04T10:25:28.032Z,1012.83
2023-05-04T10:26:27.912Z,1012.82
2023-05-04T10:27:27.904Z,1012.82
2023-05-04T10:28:27.918Z,1012.84
2023-05-04T10:29:27.880Z,1012.81
2023-05-04T10:30:27.872Z,1012.76
2023-05-04T10:31:27.904Z,1012.76
2023-05-04T10:32:27.890Z,1012.76
2023-05-04T10:33:28.042Z,1012.70
2023-05-04T10:34:27.844Z,1012.70
2023-05-04T10:35:27.878Z,1012.68
2023-05-04T10:36:27.812Z,1012.69
2023-05-04T10:37:27.803Z,1012.72
2023-05-04T10:38:27.807Z,1012.71
2023-05-04T10:39:27.817Z,1012.69
2023-05-04T10:40:27.979Z,1012.67
2023-05-04T10:41:27.788Z,1012.60
2023-05-04T10:42:27.779Z,1012.61
2023-05-04T10:43:27.745Z,1012.57
2023-05-04T10:44:27.733Z,1012.56
2023-05-04T10:45:27.731Z,1012.54
2023-05-04T10:46:27.715Z,1012.53
2023-05-04T10:47:27.730Z,1012.49
2023-05-04T10:48:27.695Z,1012.51
2023-05-04T10:49:27.691Z,1012.48
2023-05-04T10:50:27.684Z,1012.46
2023-05-04T10:51:35.709Z,1012.42
2023-05-04T10:52:28.685Z,1012.41
2023-05-04T10:53:27.644Z,1012.39
2023-05-04T10:54:27.638Z,1012.39
2023-05-04T10:55:27.623Z,1012.36
2023-05-04T10:56:27.614Z,1012.34
2023-05-04T10:57:27.628Z,1012.32
2023-05-04T10:58:27.806Z,1012.32
2023-05-04T10:59:27.588Z,1012.28
2023-05-04T11:00:27.577Z,1012.28
2023-05-04T11:01:27.569Z,1012.22
2023-05-04T11:02:27.690Z,1012.20
2023-05-04T11:03:27.745Z,1012.18
2023-05-04T11:04:27.535Z,1012.19
2023-05-04T11:05:27.529Z,1012.13
2023-05-04T11:06:27.541Z,1012.13
2023-05-04T11:07:27.515Z,1012.15
2023-05-04T11:08:27.518Z,1012.16
2023-05-04T11:09:27.485Z,1012.17
2023-05-04T11:10:27.481Z,1012.13
2023-05-04T11:11:27.465Z,1012.11
2023-05-04T11:12:27.457Z,1012.09
2023-05-04T11:13:27.480Z,1012.05
2023-05-04T11:14:27.439Z,1012.03
2023-05-04T11:15:27.428Z,1012.00
2023-05-04T11:16:27.504Z,1012.01
2023-05-04T11:17:28.741Z,1012.05
2023-05-04T11:18:27.400Z,1011.99
2023-05-04T11:19:27.394Z,1011.99
2023-05-04T11:20:27.387Z,1011.96
2023-05-04T11:21:27.376Z,1011.95
2023-05-04T11:22:27.361Z,1011.93
2023-05-04T11:23:27.352Z,1011.97
2023-05-04T11:24:27.342Z,1011.95
2023-05-04T11:25:27.354Z,1011.97
2023-05-04T11:26:27.323Z,1011.88
2023-05-04T11:27:27.311Z,1011.90
2023-05-04T11:28:27.306Z,1011.92
2023-05-04T11:29:27.323Z,1011.95
2023-05-04T11:30:27.289Z,1011.89
2023-05-04T11:31:27.344Z,1011.85
2023-05-04T11:32:27.273Z,1011.91
2023-05-04T11:33:27.256Z,1011.84
2023-05-04T11:34:27.249Z,1011.80
2023-05-04T11:35:27.241Z,1011.87
2023-05-04T11:36:27.233Z,1011.83
2023-05-04T11:37:27.215Z,1011.76
2023-05-04T11:38:27.207Z,1011.77
2023-05-04T11:39:27.191Z,1011.79
2023-05-04T11:40:27.183Z,1011.80
2023-05-04T11:41:27.173Z,1011.76
2023-05-04T11:42:27.161Z,1011.76
2023-05-04T11:43:27.152Z,1011.71
2023-05-04T11:44:27.144Z,1011.65
2023-05-04T11:45:27.159Z,1011.66
2023-05-04T11:46:27.202Z,1011.67
2023-05-04T11:47:27.125Z,1011.65
2023-05-04T11:48:27.104Z,1011.62
2023-05-04T11:49:27.092Z,1011.61
2023-05-04T11:50:27.087Z,1011.63
2023-05-04T11:51:27.075Z,1011.62
2023-05-04T11:52:27.067Z,1011.61
2023-05-04T11:53:27.057Z,1011.57
2023-05-04T11:54:27.046Z,1011.54
2023-05-04T11:55:27.034Z,1011.54
2023-05-04T11:56:27.027Z,1011.52
2023-05-04T11:57:27.019Z,1011.54
2023-05-04T11:58:27.019Z,1011.47
2023-05-04T11:59:27.007Z,1011.45
2023-05-04T12:00:26.993Z,1011.43
2023-05-04T12:01:27.005Z,1011.39
2023-05-04T12:02:27.004Z,1011.38
2023-05-04T12:03:32.691Z,1011.35
2023-05-04T12:04:28.051Z,1011.37
2023-05-04T12:05:26.944Z,1011.40
2023-05-04T12:06:26.927Z,1011.34
2023-05-04T12:07:26.923Z,1011.37
2023-05-04T12:08:26.906Z,1011.33
2023-05-04T12:09:26.917Z,1011.28
2023-05-04T12:10:26.886Z,1011.27
2023-05-04T12:11:26.890Z,1011.30
2023-05-04T12:12:27.069Z,1011.28
2023-05-04T12:13:26.856Z,1011.31
2023-05-04T12:14:26.846Z,1011.29
2023-05-04T12:15:26.836Z,1011.27
2023-05-04T12:16:26.888Z,1011.26
2023-05-04T12:17:26.849Z,1011.17
2023-05-04T12:18:26.808Z,1011.22
2023-05-04T12:19:26.809Z,1011.23
2023-05-04T12:20:26.997Z,1011.15
2023-05-04T12:21:26.774Z,1011.25
2023-05-04T12:22:26.766Z,1011.26
2023-05-04T12:23:26.764Z,1011.15
2023-05-04T12:24:26.755Z,1011.14
2023-05-04T12:25:26.734Z,1011.13
2023-05-04T12:26:26.726Z,1011.13
2023-05-04T12:27:26.714Z,1011.13
2023-05-04T12:28:26.723Z,1011.14
2023-05-04T12:29:26.715Z,1011.07
2023-05-04T12:30:26.685Z,1010.99
2023-05-04T12:31:26.692Z,1011.01
2023-05-04T12:32:26.708Z,1010.96
2023-05-04T12:33:26.680Z,1010.98
2023-05-04T12:34:26.648Z,1010.97
2023-05-04T12:35:26.638Z,1010.96
2023-05-04T12:36:26.632Z,1011.01
2023-05-04T12:37:26.615Z,1010.99
2023-05-04T12:38:26.638Z,1010.97
2023-05-04T12:39:26.609Z,1010.93
2023-05-04T12:40:28.773Z,1010.95
2023-05-04T12:41:26.573Z,1010.92
2023-05-04T12:42:26.569Z,1010.97
2023-05-04T12:43:26.575Z,1010.95
2023-05-04T12:44:26.546Z,1010.95
2023-05-04T12:45:26.532Z,1010.87
2023-05-04T12:46:26.542Z,1010.89
2023-05-04T12:47:26.549Z,1010.89
2023-05-04T12:48:26.510Z,1010.88
2023-05-04T12:49:26.537Z,1010.89
2023-05-04T12:50:26.484Z,1010.89
2023-05-04T12:51:26.473Z,1010.86
2023-05-04T12:52:26.462Z,1010.86
2023-05-04T12:53:26.450Z,1010.83
2023-05-04T12:54:26.466Z,1010.82
2023-05-04T12:55:26.430Z,1010.82
2023-05-04T12:56:26.424Z,1010.73
2023-05-04T12:57:26.409Z,1010.70
2023-05-04T12:58:26.412Z,1010.70
2023-05-04T12:59:26.401Z,1010.68
2023-05-04T13:00:26.376Z,1010.66
2023-05-04T13:01:26.392Z,1010.63
2023-05-04T13:02:26.400Z,1010.62
2023-05-04T13:03:26.477Z,1010.59
2023-05-04T13:04:26.340Z,1010.62
2023-05-04T13:05:26.374Z,1010.61
2023-05-04T13:06:26.321Z,1010.56
2023-05-04T13:07:26.311Z,1010.56
2023-05-04T13:08:26.313Z,1010.53
2023-05-04T13:09:26.284Z,1010.52
2023-05-04T13:10:26.285Z,1010.50
2023-05-04T13:11:26.268Z,1010.45
2023-05-04T13:12:26.269Z,1010.44
2023-05-04T13:13:26.390Z,1010.41
2023-05-04T13:14:26.240Z,1010.42
2023-05-04T13:15:26.232Z,1010.39
2023-05-04T13:16:26.306Z,1010.40
2023-05-04T13:17:26.235Z,1010.38
2023-05-04T13:18:26.211Z,1010.34
2023-05-04T13:19:26.390Z,1010.32
2023-05-04T13:20:26.188Z,1010.35
2023-05-04T13:21:26.196Z,1010.25
2023-05-04T13:22:26.162Z,1010.24
2023-05-04T13:23:26.191Z,1010.24
2023-05-04T13:24:26.145Z,1010.21
2023-05-04T13:25:26.133Z,1010.19
2023-05-04T13:26:26.121Z,1010.19
2023-05-04T13:27:26.113Z,1010.13
2023-05-04T13:28:26.108Z,1010.13
2023-05-04T13:29:26.088Z,1010.13
2023-05-04T13:30:26.090Z,1010.06
2023-05-04T13:31:26.100Z,1010.07
2023-05-04T13:32:26.074Z,1010.05
2023-05-04T13:33:29.981Z,1010.01
2023-05-04T13:34:26.036Z,1010.01
2023-05-04T13:35:26.025Z,1010.04
2023-05-04T13:36:26.020Z,1009.97
2023-05-04T13:37:26.030Z,1009.96
2023-05-04T13:38:25.999Z,1010.04
2023-05-04T13:39:25.986Z,1009.99
2023-05-04T13:40:25.976Z,1010.00
2023-05-04T13:41:25.965Z,1009.99
2023-05-04T13:42:25.958Z,1009.91
2023-05-04T13:43:25.945Z,1009.89
2023-05-04T13:44:25.935Z,1009.82
2023-05-04T13:45:25.931Z,1009.82
2023-05-04T13:46:25.964Z,1009.83
2023-05-04T13:47:26.002Z,1009.88
2023-05-04T13:48:26.243Z,1009.84
2023-05-04T13:49:25.884Z,1009.84
2023-05-04T13:50:25.874Z,1009.82
2023-05-04T13:51:25.862Z,1009.85
2023-05-04T13:52:25.860Z,1009.81
2023-05-04T13:53:25.902Z,1009.76
2023-05-04T13:54:25.833Z,1009.74
2023-05-04T13:55:25.821Z,1009.69
2023-05-04T13:56:25.818Z,1009.69
2023-05-04T13:57:25.802Z,1009.73
2023-05-04T13:58:25.793Z,1009.68
2023-05-04T13:59:25.782Z,1009.73
2023-05-04T14:00:25.798Z,1009.68
2023-05-04T14:01:25.842Z,1009.66
2023-05-04T14:02:26.024Z,1009.70
2023-05-04T14:03:25.800Z,1009.65
2023-05-04T14:04:25.775Z,1009.67
2023-05-04T14:05:25.790Z,1009.60
2023-05-04T14:06:25.787Z,1009.63
2023-05-04T14:07:59.619Z,1009.65
2023-05-04T14:08:59.634Z,1009.63
2023-05-04T14:09:59.601Z,1009.65
2023-05-04T14:10:59.598Z,1009.64
2023-05-04T14:11:59.579Z,1009.61
2023-05-04T14:12:59.592Z,1009.60
2023-05-04T14:13:59.559Z,1009.59
2023-05-04T14:14:59.548Z,1009.59
2023-05-04T14:15:59.559Z,1009.57
2023-05-04T14:16:59.765Z,1009.57
2023-05-04T14:17:59.537Z,1009.54
2023-05-04T14:18:59.506Z,1009.49
2023-05-04T14:19:59.498Z,1009.47
2023-05-04T14:20:59.481Z,1009.47
2023-05-04T14:21:59.476Z,1009.49
2023-05-04T14:22:59.474Z,1009.44
2023-05-04T14:23:59.462Z,1009.40
2023-05-04T14:24:59.529Z,1009.39
2023-05-04T14:25:59.436Z,1009.38
2023-05-04T14:26:59.429Z,1009.35
2023-05-04T14:27:59.414Z,1009.33
2023-05-04T14:28:59.406Z,1009.36
2023-05-04T14:29:59.396Z,1009.35
2023-05-04T14:30:59.384Z,1009.28
2023-05-04T14:31:59.431Z,1009.33
2023-05-04T14:32:59.418Z,1009.31
2023-05-04T14:33:59.353Z,1009.39
2023-05-04T14:34:59.343Z,1009.34
2023-05-04T14:35:59.339Z,1009.34
2023-05-04T14:36:59.540Z,1009.36
2023-05-04T14:37:59.312Z,1009.34
2023-05-04T14:38:59.304Z,1009.34
2023-05-04T14:39:59.294Z,1009.29
2023-05-04T14:40:59.303Z,1009.27
2023-05-04T14:41:59.281Z,1009.28
2023-05-04T14:42:59.260Z,1009.25
2023-05-04T14:43:59.253Z,1009.21
2023-05-04T14:44:59.236Z,1009.25
2023-05-04T14:45:59.363Z,1009.24
2023-05-04T14:46:59.216Z,1009.25
2023-05-04T14:47:59.335Z,1009.23
2023-05-04T14:48:59.202Z,1009.24
2023-05-04T14:49:59.194Z,1009.19
2023-05-04T14:50:59.182Z,1009.15
2023-05-04T14:51:59.174Z,1009.12
2023-05-04T14:52:59.165Z,1009.08
2023-05-04T14:53:59.155Z,1009.02
2023-05-04T14:54:59.142Z,1009.04
2023-05-04T14:55:59.133Z,1008.98
2023-05-04T14:56:59.250Z,1008.99
2023-05-04T14:57:59.117Z,1008.97
2023-05-04T14:58:59.305Z,1008.94
2023-05-04T14:59:59.090Z,1008.92
2023-05-04T15:00:59.135Z,1008.93
2023-05-04T15:01:59.279Z,1008.89
2023-05-04T15:02:59.153Z,1008.92
2023-05-04T15:03:59.114Z,1008.88
2023-05-04T15:04:59.048Z,1008.88
2023-05-04T15:05:59.038Z,1008.86
2023-05-04T15:06:59.024Z,1008.85
2023-05-04T15:07:59.014Z,1008.85
2023-05-04T15:08:59.000Z,1008.77
2023-05-04T15:09:59.000Z,1008.84
2023-05-04T15:10:58.987Z,1008.84
2023-05-04T15:11:58.982Z,1008.82
2023-05-04T15:12:59.058Z,1008.81
2023-05-04T15:13:58.962Z,1008.81
2023-05-04T15:14:58.946Z,1008.78
2023-05-04T15:15:58.996Z,1008.81
2023-05-04T15:16:58.922Z,1008.74
2023-05-04T15:17:58.953Z,1008.71
2023-05-04T15:18:58.905Z,1008.73
2023-05-04T15:19:58.889Z,1008.75
2023-05-04T15:20:58.879Z,1008.71
2023-05-04T15:21:58.869Z,1008.71
2023-05-04T15:22:59.061Z,1008.74
2023-05-04T15:23:58.854Z,1008.64
2023-05-04T15:24:58.844Z,1008.66
2023-05-04T15:25:58.828Z,1008.61
2023-05-04T15:26:58.821Z,1008.63
2023-05-04T15:27:58.810Z,1008.61
2023-05-04T15:28:58.814Z,1008.58
2023-05-04T15:29:58.812Z,1008.61
2023-05-04T15:30:58.785Z,1008.63
2023-05-04T15:31:58.807Z,1008.67
2023-05-04T15:32:58.793Z,1008.63
2023-05-04T15:33:58.749Z,1008.65
2023-05-04T15:35:05.366Z,1008.64
2023-05-04T15:35:59.760Z,1008.58
2023-05-04T15:36:58.720Z,1008.63
2023-05-04T15:37:58.712Z,1008.59
2023-05-04T15:38:58.697Z,1008.58
2023-05-04T15:40:00.400Z,1008.62
2023-05-04T15:40:58.676Z,1008.66
2023-05-04T15:41:58.681Z,1008.65
2023-05-04T15:42:58.688Z,1008.62
2023-05-04T15:43:58.659Z,1008.65
2023-05-04T15:44:58.686Z,1008.66
2023-05-04T15:45:58.627Z,1008.61
2023-05-04T15:46:58.681Z,1008.58
2023-05-04T15:47:58.674Z,1008.54
2023-05-04T15:48:58.596Z,1008.54
2023-05-04T15:49:58.592Z,1008.53
2023-05-04T15:50:58.596Z,1008.53
2023-05-04T15:51:58.567Z,1008.49
2023-05-04T15:52:58.558Z,1008.58
2023-05-04T15:53:58.545Z,1008.55
2023-05-04T15:55:00.695Z,1008.49
2023-05-04T15:55:58.527Z,1008.48
2023-05-04T15:56:58.514Z,1008.45
2023-05-04T15:57:58.514Z,1008.47
2023-05-04T15:58:58.490Z,1008.43
2023-05-04T15:59:58.485Z,1008.45
2023-05-04T16:00:58.550Z,1008.50
2023-05-04T16:01:58.465Z,1008.44
2023-05-04T16:02:58.500Z,1008.47
2023-05-04T16:03:58.472Z,1008.45
2023-05-04T16:04:58.437Z,1008.48
2023-05-04T16:05:58.423Z,1008.52
2023-05-04T16:06:58.411Z,1008.53
2023-05-04T16:07:58.414Z,1008.47
2023-05-04T16:08:58.393Z,1008.37
2023-05-04T16:09:58.386Z,1008.44
2023-05-04T16:10:58.369Z,1008.39
2023-05-04T16:11:58.361Z,1008.40
2023-05-04T16:12:58.414Z,1008.41
2023-05-04T16:13:58.344Z,1008.40
2023-05-04T16:14:58.337Z,1008.40
2023-05-04T16:15:58.336Z,1008.38
2023-05-04T16:16:58.452Z,1008.39
2023-05-04T16:17:58.411Z,1008.40
2023-05-04T16:18:58.293Z,1008.37
2023-05-04T16:19:58.281Z,1008.38
2023-05-04T16:20:58.279Z,1008.39
2023-05-04T16:21:58.263Z,1008.37
2023-05-04T16:22:58.288Z,1008.39
2023-05-04T16:23:58.242Z,1008.36
2023-05-04T16:24:58.431Z,1008.34
2023-05-04T16:25:58.231Z,1008.36
2023-05-04T16:26:58.210Z,1008.29
2023-05-04T16:27:58.222Z,1008.29
2023-05-04T16:28:58.192Z,1008.32
2023-05-04T16:29:58.182Z,1008.33
2023-05-04T16:30:58.242Z,1008.35
2023-05-04T16:31:58.165Z,1008.37
2023-05-04T16:32:58.186Z,1008.37
2023-05-04T16:33:58.143Z,1008.36
2023-05-04T16:34:58.168Z,1008.36
2023-05-04T16:35:58.123Z,1008.33
2023-05-04T16:36:58.115Z,1008.34
2023-05-04T16:37:58.099Z,1008.37
2023-05-04T16:38:58.093Z,1008.34
2023-05-04T16:39:58.081Z,1008.36
2023-05-04T16:40:58.072Z,1008.34
2023-05-04T16:41:58.068Z,1008.32
2023-05-04T16:42:58.052Z,1008.29
2023-05-04T16:43:58.043Z,1008.28
2023-05-04T16:44:58.038Z,1008.26
2023-05-04T16:45:58.115Z,1008.23
2023-05-04T16:46:58.020Z,1008.25
2023-05-04T16:47:58.067Z,1008.29
2023-05-04T16:48:58.018Z,1008.26
2023-05-04T16:49:57.984Z,1008.26
2023-05-04T16:50:57.970Z,1008.28
2023-05-04T16:51:57.970Z,1008.28
2023-05-04T16:52:57.952Z,1008.28
2023-05-04T16:53:57.967Z,1008.27
2023-05-04T16:54:57.928Z,1008.25
2023-05-04T16:55:57.923Z,1008.22
2023-05-04T16:56:57.911Z,1008.17
2023-05-04T16:57:57.914Z,1008.13
2023-05-04T16:58:57.888Z,1008.14
2023-05-04T16:59:57.884Z,1008.04
2023-05-04T17:00:57.870Z,1008.13
2023-05-04T17:01:57.904Z,1008.15
2023-05-04T17:02:58.093Z,1008.13
2023-05-04T17:03:57.879Z,1008.15
2023-05-04T17:04:57.851Z,1008.15
2023-05-04T17:05:57.818Z,1008.10
2023-05-04T17:06:57.805Z,1008.13
2023-05-04T17:07:57.800Z,1008.10
2023-05-04T17:08:57.796Z,1008.14
2023-05-04T17:09:57.799Z,1008.03
2023-05-04T17:10:57.777Z,1008.07
2023-05-04T17:11:57.824Z,1008.04
2023-05-04T17:12:58.198Z,1008.02
2023-05-04T17:13:57.739Z,1008.04
2023-05-04T17:14:57.725Z,1008.01
2023-05-04T17:15:57.736Z,1008.01
2023-05-04T17:16:57.705Z,1007.96
2023-05-04T17:17:57.750Z,1008.03
2023-05-04T17:18:57.690Z,1008.00
2023-05-04T17:19:57.691Z,1008.08
2023-05-04T17:20:57.686Z,1008.05
2023-05-04T17:21:57.653Z,1008.07
2023-05-04T17:22:57.664Z,1008.12
2023-05-04T17:23:57.631Z,1008.11
2023-05-04T17:24:57.631Z,1008.15
2023-05-04T17:25:57.608Z,1008.15
2023-05-04T17:26:57.600Z,1008.10
2023-05-04T17:27:57.595Z,1008.13
2023-05-04T17:28:57.583Z,1008.11
2023-05-04T17:29:57.577Z,1008.09
2023-05-04T17:30:57.557Z,1008.14
2023-05-04T17:31:57.587Z,1008.14
2023-05-04T17:32:57.630Z,1008.16
2023-05-04T17:33:57.531Z,1008.16
2023-05-04T17:34:58.462Z,1008.14
2023-05-04T17:35:57.503Z,1008.16
2023-05-04T17:36:57.519Z,1008.20
2023-05-04T17:37:59.057Z,1008.26
2023-05-04T17:38:57.470Z,1008.27
2023-05-04T17:39:57.501Z,1008.26
2023-05-04T17:40:57.469Z,1008.26
2023-05-04T17:41:57.443Z,1008.24
2023-05-04T17:42:57.528Z,1008.22
2023-05-04T17:43:57.423Z,1008.19
2023-05-04T17:44:57.413Z,1008.22
2023-05-04T17:45:57.431Z,1008.25
2023-05-04T17:46:57.392Z,1008.21
2023-05-04T17:47:57.439Z,1008.19
2023-05-04T17:48:57.371Z,1008.17
2023-05-04T17:49:57.359Z,1008.22
2023-05-04T17:50:57.352Z,1008.15
2023-05-04T17:51:57.338Z,1008.20
2023-05-04T17:52:57.353Z,1008.18
2023-05-04T17:53:57.327Z,1008.21
2023-05-04T17:54:57.309Z,1008.22
2023-05-04T17:55:57.308Z,1008.21
2023-05-04T17:56:57.298Z,1008.15
2023-05-04T17:57:57.279Z,1008.15
2023-05-04T17:58:57.274Z,1008.15
2023-05-04T17:59:57.255Z,1008.12
2023-05-04T18:00:57.260Z,1008.12
2023-05-04T18:01:57.256Z,1008.16
2023-05-04T18:02:57.319Z,1008.16
2023-05-04T18:03:57.262Z,1008.22
2023-05-04T18:04:57.200Z,1008.25
2023-05-04T18:05:57.194Z,1008.26
2023-05-04T18:06:57.184Z,1008.27
2023-05-04T18:07:57.178Z,1008.25
2023-05-04T18:08:57.190Z,1008.27
2023-05-04T18:09:57.149Z,1008.30
2023-05-04T18:10:57.145Z,1008.31
2023-05-04T18:11:57.126Z,1008.29
2023-05-04T18:12:57.133Z,1008.28
2023-05-04T18:13:57.118Z,1008.32
2023-05-04T18:14:57.126Z,1008.29
2023-05-04T18:15:57.107Z,1008.30
2023-05-04T18:16:57.086Z,1008.30
2023-05-04T18:17:57.118Z,1008.31
2023-05-04T18:18:58.402Z,1008.33
2023-05-04T18:19:57.044Z,1008.28
2023-05-04T18:20:57.035Z,1008.28
2023-05-04T18:21:57.031Z,1008.30
2023-05-04T18:22:57.015Z,1008.30
2023-05-04T18:23:57.012Z,1008.33
2023-05-04T18:24:57.014Z,1008.31
2023-05-04T18:25:57.003Z,1008.31
2023-05-04T18:26:56.973Z,1008.31
2023-05-04T18:27:56.968Z,1008.28
2023-05-04T18:29:04.217Z,1008.33
2023-05-04T18:29:57.968Z,1008.30
2023-05-04T18:30:56.931Z,1008.30
2023-05-04T18:31:56.945Z,1008.31